Time;durP1;ratioP1;P1;durP2;ratioP2;P2;SDS_P1;SDS_P2;PMS_P1;PMS_P2;Temp;Humidity;BMP_temperature;BMP_pressure;BME280_temperature;BME280_humidity;BME280_pressure;Samples;Min_cycle;Max_cycle;Signal;HPM_P1;HPM_P2
2021/12/19 00:01:43;;;;;;;11.88;6.78;;;;;;;-1.04;100.00;95539.69;5075162;28;20039;-70
2021/12/19 00:09:37;;;;;;;17.58;7.65;;;;;;;-1.05;100.00;95538.06;5067556;28;20040;-70
2021/12/19 00:12:05;;;;;;;14.50;6.93;;;;;;;-1.08;100.00;95530.69;5088626;28;20040;-70
2021/12/19 00:14:32;;;;;;;16.52;7.72;;;;;;;-1.10;100.00;95530.00;5090537;28;20114;-70
2021/12/19 00:16:59;;;;;;;17.20;7.28;;;;;;;-1.11;100.00;95515.63;5092928;28;20043;-71
2021/12/19 00:19:26;;;;;;;13.38;7.30;;;;;;;-1.04;100.00;95518.44;5075808;28;20413;-71
2021/12/19 00:21:53;;;;;;;15.38;6.95;;;;;;;-1.14;100.00;95508.22;5087875;28;20044;-70
2021/12/19 00:24:20;;;;;;;11.10;6.50;;;;;;;-1.11;100.00;95497.72;5090332;28;20050;-71
2021/12/19 00:26:47;;;;;;;18.05;7.57;;;;;;;-1.16;100.00;95508.38;5091938;28;20038;-70
2021/12/19 00:29:14;;;;;;;11.82;5.63;;;;;;;-1.29;100.00;95489.22;5067506;28;20042;-70
2021/12/19 00:31:45;;;;;;;12.60;6.75;;;;;;;-1.29;100.00;95514.78;5089964;28;20134;-71
2021/12/19 00:34:15;;;;;;;10.65;6.40;;;;;;;-1.29;100.00;95510.44;5092429;28;20066;-70
2021/12/19 00:36:42;;;;;;;12.15;6.32;;;;;;;-1.40;100.00;95519.09;5083862;28;20116;-70
2021/12/19 00:39:09;;;;;;;12.40;7.10;;;;;;;-1.74;100.00;95503.47;5091273;28;20143;-71
2021/12/19 00:41:36;;;;;;;12.98;6.75;;;;;;;-1.71;100.00;95504.94;5093644;28;20039;-71
2021/12/19 00:44:14;;;;;;;10.77;5.45;;;;;;;-1.76;100.00;95513.81;5086698;28;20028;-70
2021/12/19 00:46:52;;;;;;;14.45;6.75;;;;;;;-1.78;100.00;95505.50;5068735;28;20045;-70
2021/12/19 00:49:20;;;;;;;11.18;5.78;;;;;;;-1.81;100.00;95503.22;5069230;28;20045;-70
2021/12/19 00:51:47;;;;;;;11.85;4.85;;;;;;;-2.02;100.00;95497.47;5062233;28;20031;-71
2021/12/19 00:54:14;;;;;;;6.85;4.50;;;;;;;-1.95;100.00;95512.09;5081059;28;20039;-71
2021/12/19 00:56:44;;;;;;;9.98;6.10;;;;;;;-2.07;100.00;95499.63;5091632;28;20483;-71
2021/12/19 00:59:12;;;;;;;8.18;4.95;;;;;;;-2.19;100.00;95502.31;5092435;28;20097;-71
2021/12/19 01:01:42;;;;;;;9.55;4.57;;;;;;;-2.23;100.00;95495.88;5061831;28;20121;-70
2021/12/19 01:04:12;;;;;;;13.32;6.22;;;;;;;-2.31;100.00;95493.19;5074012;28;20045;-70
2021/12/19 01:06:41;;;;;;;11.63;4.97;;;;;;;-2.32;100.00;95491.59;5096175;28;20036;-70
2021/12/19 01:09:10;;;;;;;9.75;4.28;;;;;;;-2.40;100.00;95483.78;5065789;28;20043;-70
2021/12/19 01:11:37;;;;;;;7.65;5.00;;;;;;;-2.38;100.00;95487.00;5077093;28;20042;-71
2021/12/19 01:14:05;;;;;;;8.45;5.20;;;;;;;-2.41;100.00;95484.72;5067968;28;20144;-70
2021/12/19 01:16:32;;;;;;;9.32;4.75;;;;;;;-2.44;100.00;95477.34;5092279;28;20030;-70
2021/12/19 01:18:59;;;;;;;9.30;5.00;;;;;;;-2.50;100.00;95481.25;5093288;27;20033;-70
2021/12/19 01:21:26;;;;;;;15.95;5.40;;;;;;;-2.46;100.00;95484.34;5092669;28;20487;-70
2021/12/19 01:23:53;;;;;;;7.43;4.18;;;;;;;-2.52;100.00;95481.38;5086409;28;20042;-70
2021/12/19 01:26:20;;;;;;;8.88;5.40;;;;;;;-2.64;100.00;95472.25;5075421;28;20140;-70
2021/12/19 01:28:47;;;;;;;12.07;5.78;;;;;;;-2.70;100.00;95465.13;5094901;27;20042;-70
2021/12/19 01:31:14;;;;;;;7.63;5.15;;;;;;;-2.70;100.00;95471.03;5097500;28;20045;-69
2021/12/19 01:33:41;;;;;;;9.32;4.50;;;;;;;-2.57;100.00;95478.41;5091042;28;20115;-70
2021/12/19 01:36:08;;;;;;;6.95;4.88;;;;;;;-2.59;100.00;95475.22;5050568;28;20404;-70
2021/12/19 01:38:35;;;;;;;7.90;4.68;;;;;;;-2.62;100.00;95470.38;5076813;28;20053;-70
2021/12/19 01:41:03;;;;;;;9.65;5.43;;;;;;;-2.69;100.00;95456.53;5093817;28;20039;-70
2021/12/19 01:43:31;;;;;;;10.18;5.50;;;;;;;-2.81;100.00;95449.94;5094634;28;20042;-70
2021/12/19 01:45:59;;;;;;;5.40;4.20;;;;;;;-2.87;100.00;95448.75;5095289;28;20536;-69
2021/12/19 01:48:26;;;;;;;5.85;4.43;;;;;;;-2.67;100.00;95464.06;5096918;28;20071;-69
2021/12/19 01:50:54;;;;;;;7.07;4.78;;;;;;;-2.71;100.00;95460.97;5096511;28;20403;-69
2021/12/19 01:53:21;;;;;;;9.30;5.15;;;;;;;-2.70;100.00;95457.50;5070222;28;20043;-69
2021/12/19 01:55:50;;;;;;;13.18;6.05;;;;;;;-2.78;100.00;95454.78;5067034;28;20042;-69
2021/12/19 01:58:18;;;;;;;9.02;5.63;;;;;;;-2.73;100.00;95457.75;5092429;28;20052;-69
2021/12/19 02:00:50;;;;;;;11.55;6.18;;;;;;;-2.68;100.00;95445.41;5077120;28;20057;-70
2021/12/19 02:03:19;;;;;;;9.13;5.57;;;;;;;-2.66;100.00;95438.44;5071883;28;20039;-70
2021/12/19 02:05:47;;;;;;;13.85;6.32;;;;;;;-2.69;100.00;95436.13;5083899;28;20120;-70
2021/12/19 02:08:15;;;;;;;9.65;5.28;;;;;;;-2.73;100.00;95437.34;5089439;28;20054;-69
2021/12/19 02:10:42;;;;;;;11.73;5.53;;;;;;;-2.65;100.00;95442.56;5080771;27;20403;-69
2021/12/19 02:13:11;;;;;;;14.55;8.00;;;;;;;-2.54;100.00;95437.34;5086758;28;20478;-69
2021/12/19 02:15:40;;;;;;;9.73;6.18;;;;;;;-2.52;100.00;95440.56;5065760;28;20049;-69
2021/12/19 02:18:16;;;;;;;11.15;6.43;;;;;;;-2.60;100.00;95442.97;5084914;28;20045;-69
2021/12/19 02:20:50;;;;;;;12.57;7.45;;;;;;;-2.77;100.00;95424.06;5077911;28;20044;-69
2021/12/19 02:23:19;;;;;;;13.73;6.22;;;;;;;-2.57;100.00;95437.63;5054483;28;20040;-69
2021/12/19 02:25:48;;;;;;;9.73;5.38;;;;;;;-2.41;100.00;95441.34;5074270;28;20048;-69
2021/12/19 02:28:15;;;;;;;16.80;6.10;;;;;;;-2.47;100.00;95431.69;5070413;28;20367;-69
2021/12/19 02:30:42;;;;;;;16.80;10.48;;;;;;;-2.47;100.00;95426.59;5069247;28;20468;-69
2021/12/19 02:33:13;;;;;;;31.27;17.35;;;;;;;-2.48;100.00;95430.91;5075723;28;20039;-69
2021/12/19 02:35:43;;;;;;;24.95;12.73;;;;;;;-2.52;100.00;95430.38;5091097;28;20051;-69
2021/12/19 02:49:05;;;;;;;19.08;10.63;;;;;;;-2.50;100.00;95415.72;5057830;28;20045;-74
2021/12/19 02:51:35;;;;;;;18.65;8.70;;;;;;;-2.82;100.00;95407.56;5052722;28;20045;-74
2021/12/19 02:54:04;;;;;;;13.57;6.85;;;;;;;-3.34;100.00;95403.47;5048058;28;20103;-74
2021/12/19 02:56:31;;;;;;;10.80;5.78;;;;;;;-3.61;100.00;95410.91;5047543;28;20046;-74
2021/12/19 02:58:58;;;;;;;10.52;4.80;;;;;;;-3.87;100.00;95401.13;5030258;28;20114;-74
2021/12/19 03:01:26;;;;;;;12.68;6.55;;;;;;;-3.88;100.00;95409.72;5054987;28;20053;-74
2021/12/19 03:03:53;;;;;;;13.43;6.38;;;;;;;-3.57;100.00;95412.25;5069188;28;20448;-74
2021/12/19 03:06:20;;;;;;;12.70;6.05;;;;;;;-3.56;100.00;95403.69;5040372;28;20044;-74
2021/12/19 03:08:50;;;;;;;9.90;5.03;;;;;;;-3.42;100.00;95403.31;5076099;28;20041;-74
2021/12/19 03:19:24;;;;;;;8.95;5.53;;;;;;;-2.87;100.00;95410.50;5062661;28;20039;-74
2021/12/19 03:21:51;;;;;;;10.77;6.57;;;;;;;-2.89;100.00;95402.97;5064188;28;20464;-74
2021/12/19 03:24:17;;;;;;;10.60;6.20;;;;;;;-2.96;100.00;95396.81;5046292;28;20140;-74
2021/12/19 03:26:44;;;;;;;13.13;6.15;;;;;;;-3.01;100.00;95398.94;5045441;28;20486;-74
2021/12/19 03:29:11;;;;;;;16.20;8.63;;;;;;;-3.14;100.00;95394.09;5055341;28;20102;-73
2021/12/19 03:31:38;;;;;;;18.58;10.50;;;;;;;-3.25;100.00;95395.97;5056452;28;20041;-74
2021/12/19 03:34:05;;;;;;;12.43;7.15;;;;;;;-3.35;100.00;95396.78;5047866;28;20044;-74
2021/12/19 03:36:33;;;;;;;18.45;6.25;;;;;;;-3.37;100.00;95397.81;5035732;28;20680;-74
2021/12/19 03:39:03;;;;;;;11.85;7.50;;;;;;;-3.46;100.00;95399.41;5047561;28;20681;-74
2021/12/19 03:41:34;;;;;;;11.20;7.40;;;;;;;-3.45;100.00;95385.75;5052923;28;20426;-74
2021/12/19 03:44:04;;;;;;;14.95;7.70;;;;;;;-3.50;100.00;95388.66;5060655;28;20128;-74
2021/12/19 03:46:31;;;;;;;11.80;7.28;;;;;;;-3.42;100.00;95377.84;5072180;28;20059;-74
2021/12/19 03:48:59;;;;;;;11.30;7.13;;;;;;;-3.47;100.00;95387.63;5077825;28;20794;-73
2021/12/19 03:51:26;;;;;;;15.32;6.75;;;;;;;-3.55;100.00;95379.81;5054481;28;20070;-73
2021/12/19 03:53:53;;;;;;;10.10;6.18;;;;;;;-3.54;100.00;95361.06;5039013;28;20037;-74
2021/12/19 03:56:20;;;;;;;17.63;7.07;;;;;;;-3.31;100.00;95382.81;5063961;28;20052;-73
2021/12/19 03:58:47;;;;;;;45.75;19.48;;;;;;;-3.25;100.00;95375.59;5043303;28;20049;-73
2021/12/19 04:01:13;;;;;;;68.45;30.60;;;;;;;-3.21;100.00;95382.84;5060346;28;20529;-73
2021/12/19 04:03:41;;;;;;;35.45;15.32;;;;;;;-3.25;100.00;95375.59;5048655;28;20495;-73
2021/12/19 04:06:09;;;;;;;22.90;9.85;;;;;;;-3.14;100.00;95383.13;5043457;28;20092;-74
2021/12/19 04:08:36;;;;;;;16.33;9.32;;;;;;;-3.34;100.00;95367.78;5066767;28;20046;-73
2021/12/19 04:11:03;;;;;;;16.40;7.13;;;;;;;-3.49;100.00;95376.78;5056430;28;20041;-73
2021/12/19 04:13:30;;;;;;;9.02;5.85;;;;;;;-3.46;100.00;95373.94;5066291;28;20047;-73
2021/12/19 04:15:57;;;;;;;14.07;7.32;;;;;;;-3.40;100.00;95381.06;5083535;28;20050;-73
2021/12/19 04:18:24;;;;;;;12.35;6.20;;;;;;;-3.48;100.00;95355.44;5073214;28;20027;-73
2021/12/19 04:20:51;;;;;;;10.27;4.60;;;;;;;-3.31;100.00;95372.63;5068332;28;20126;-73
2021/12/19 04:23:18;;;;;;;14.18;6.78;;;;;;;-3.51;100.00;95368.44;5062884;28;20522;-73
2021/12/19 04:25:45;;;;;;;19.05;8.63;;;;;;;-3.50;100.00;95362.41;5055145;28;20041;-72
2021/12/19 04:28:13;;;;;;;18.60;8.40;;;;;;;-3.46;100.00;95368.84;5055729;28;20055;-73
2021/12/19 04:30:40;;;;;;;10.90;5.78;;;;;;;-3.46;100.00;95361.22;5063754;28;20096;-73
2021/12/19 04:33:10;;;;;;;8.98;5.10;;;;;;;-3.56;100.00;95362.94;5061751;28;20041;-73
2021/12/19 04:35:42;;;;;;;9.63;5.00;;;;;;;-3.59;100.00;95369.09;5056835;28;20046;-73
2021/12/19 04:54:28;;;;;;;7.68;3.95;;;;;;;-4.71;100.00;95327.50;5056209;28;20051;-71
2021/12/19 05:15:37;;;;;;;24.35;12.55;;;;;;;-4.41;100.00;95326.75;5062315;28;20525;-73
2021/12/19 05:18:08;;;;;;;51.05;19.02;;;;;;;-4.35;100.00;95350.88;5053976;28;20038;-73
2021/12/19 05:20:38;;;;;;;41.80;22.27;;;;;;;-4.22;100.00;95351.44;5047899;28;20044;-72
2021/12/19 05:23:18;;;;;;;27.85;15.52;;;;;;;-4.23;100.00;95324.41;5072487;28;20094;-73
2021/12/19 05:25:45;;;;;;;17.23;9.40;;;;;;;-4.07;100.00;95340.00;5044247;28;20044;-72
2021/12/19 05:28:12;;;;;;;18.48;8.98;;;;;;;-4.17;100.00;95326.44;5065178;28;20057;-73
2021/12/19 05:30:39;;;;;;;23.25;10.25;;;;;;;-4.00;100.00;95350.47;5063335;28;20105;-73
2021/12/19 05:33:07;;;;;;;30.20;13.93;;;;;;;-4.00;100.00;95344.56;5052757;28;20033;-72
2021/12/19 05:46:41;;;;;;;15.88;7.97;;;;;;;-4.37;100.00;95322.22;5055599;28;20041;-73
2021/12/19 05:49:09;;;;;;;13.32;6.97;;;;;;;-4.34;100.00;95344.81;5071338;28;20046;-73
2021/12/19 05:51:37;;;;;;;14.30;7.57;;;;;;;-4.42;100.00;95335.28;5058202;28;20542;-73
2021/12/19 05:54:06;;;;;;;9.82;5.60;;;;;;;-4.53;100.00;95338.72;5053642;28;20042;-73
2021/12/19 05:56:38;;;;;;;15.10;8.68;;;;;;;-4.60;100.00;95337.59;5060381;28;20617;-73
2021/12/19 05:59:06;;;;;;;18.60;10.32;;;;;;;-4.65;100.00;95339.72;5059449;28;20039;-73
2021/12/19 06:01:33;;;;;;;20.05;9.65;;;;;;;-4.85;100.00;95319.25;5078939;28;20041;-73
2021/12/19 06:04:00;;;;;;;20.05;8.52;;;;;;;-4.71;100.00;95330.06;5066240;28;20038;-73
2021/12/19 06:06:28;;;;;;;23.23;11.43;;;;;;;-4.77;100.00;95322.91;5045446;28;20044;-74
2021/12/19 06:08:55;;;;;;;25.65;11.02;;;;;;;-4.70;100.00;95327.41;5068680;28;20037;-73
2021/12/19 06:11:23;;;;;;;18.40;11.38;;;;;;;-4.80;100.00;95307.00;5053380;28;20045;-74
2021/12/19 06:13:50;;;;;;;37.40;15.90;;;;;;;-4.82;100.00;95313.94;5044200;28;20051;-75
2021/12/19 06:16:17;;;;;;;33.80;14.77;;;;;;;-4.85;100.00;95309.09;5061075;28;20039;-73
2021/12/19 06:18:44;;;;;;;40.53;18.90;;;;;;;-4.86;100.00;95307.50;5060858;28;20052;-74
2021/12/19 06:21:11;;;;;;;23.73;13.52;;;;;;;-4.82;100.00;95298.69;5067118;28;20504;-74
2021/12/19 06:23:39;;;;;;;64.00;20.15;;;;;;;-4.63;100.00;95317.50;5053052;28;20473;-72
2021/12/19 06:26:10;;;;;;;67.90;29.02;;;;;;;-4.64;100.00;95300.66;5051436;28;20092;-73
2021/12/19 06:28:37;;;;;;;66.15;27.15;;;;;;;-4.54;100.00;95303.25;5058514;28;20505;-73
2021/12/19 06:31:05;;;;;;;83.15;38.95;;;;;;;-4.48;100.00;95306.09;5074430;28;20039;-73
2021/12/19 06:33:32;;;;;;;50.55;25.33;;;;;;;-4.47;100.00;95302.59;5051581;28;20037;-73
2021/12/19 06:35:59;;;;;;;28.05;14.32;;;;;;;-4.61;100.00;95274.97;5053027;28;20041;-74
2021/12/19 06:38:26;;;;;;;18.92;9.38;;;;;;;-4.35;100.00;95305.09;5060568;28;20045;-73
2021/12/19 06:40:54;;;;;;;76.25;25.77;;;;;;;-4.40;100.00;95281.78;5051230;28;20041;-74
2021/12/19 06:43:20;;;;;;;62.25;25.90;;;;;;;-4.23;100.00;95304.06;5064431;28;20863;-74
2021/12/19 06:45:48;;;;;;;41.65;19.45;;;;;;;-4.12;100.00;95310.81;5044225;28;20043;-73
2021/12/19 06:48:15;;;;;;;30.13;14.40;;;;;;;-4.03;100.00;95295.56;5068477;28;20050;-73
2021/12/19 06:50:42;;;;;;;68.90;30.35;;;;;;;-3.97;100.00;95293.44;5051062;28;20134;-73
2021/12/19 06:53:08;;;;;;;35.13;17.20;;;;;;;-4.12;100.00;95286.16;5044404;28;20049;-73
2021/12/19 06:55:37;;;;;;;20.73;12.00;;;;;;;-4.06;100.00;95295.81;5075002;28;20051;-73
2021/12/19 06:58:04;;;;;;;15.75;7.85;;;;;;;-4.01;100.00;95287.00;5077167;28;20427;-74
2021/12/19 07:00:31;;;;;;;10.80;6.55;;;;;;;-4.03;100.00;95295.56;5073354;28;20076;-74
2021/12/19 07:02:58;;;;;;;9.82;5.47;;;;;;;-4.05;100.00;95272.00;5061891;28;20118;-73
2021/12/19 07:05:25;;;;;;;9.10;5.18;;;;;;;-3.81;100.00;95298.84;5087458;28;20427;-73
2021/12/19 07:07:53;;;;;;;7.78;4.43;;;;;;;-3.74;100.00;95287.19;5053546;28;20529;-74
2021/12/19 07:10:20;;;;;;;8.32;5.60;;;;;;;-3.78;100.00;95278.22;5064036;28;20579;-75
2021/12/19 07:12:47;;;;;;;12.93;4.45;;;;;;;-3.73;100.00;95267.63;5060040;28;20049;-74
2021/12/19 07:15:14;;;;;;;10.57;5.15;;;;;;;-3.56;100.00;95277.16;5045452;28;20073;-73
2021/12/19 07:17:41;;;;;;;7.65;4.50;;;;;;;-3.35;100.00;95294.88;5038820;28;20048;-74
2021/12/19 07:20:09;;;;;;;9.20;3.97;;;;;;;-3.27;100.00;95287.34;5066283;28;20124;-75
2021/12/19 07:22:36;;;;;;;8.25;4.28;;;;;;;-3.19;100.00;95263.75;5045521;28;20064;-74
2021/12/19 07:25:04;;;;;;;6.78;4.10;;;;;;;-2.98;100.00;95266.16;5060729;28;20043;-74
2021/12/19 07:27:30;;;;;;;9.45;4.55;;;;;;;-2.84;100.00;95271.78;5057962;28;20501;-74
2021/12/19 07:29:58;;;;;;;7.85;3.80;;;;;;;-2.78;100.00;95271.22;5067133;28;20044;-72
2021/12/19 07:32:25;;;;;;;19.35;8.68;;;;;;;-2.76;100.00;95254.03;5061014;28;20058;-72
2021/12/19 07:35:13;;;;;;;23.98;11.05;;;;;;;-2.63;100.00;95253.72;5064849;28;20738;-72
2021/12/19 07:37:41;;;;;;;22.73;11.15;;;;;;;-2.48;100.00;95264.28;5073414;28;20040;-73
2021/12/19 07:40:16;;;;;;;18.35;8.65;;;;;;;-2.47;100.00;95248.03;5074057;28;20048;-73
2021/12/19 07:42:44;;;;;;;39.47;13.07;;;;;;;-2.30;100.00;95260.06;5038878;28;20104;-73
2021/12/19 07:45:14;;;;;;;36.28;11.70;;;;;;;-2.18;100.00;95263.22;5060486;28;20554;-73
2021/12/19 07:47:42;;;;;;;8.82;5.55;;;;;;;-2.06;100.00;95261.31;5033304;28;20053;-72
2021/12/19 07:50:12;;;;;;;6.53;3.90;;;;;;;-1.97;100.00;95273.22;5069571;28;20049;-73
2021/12/19 07:52:39;;;;;;;13.25;6.80;;;;;;;-1.88;100.00;95269.00;5057731;28;20515;-73
2021/12/19 07:55:07;;;;;;;17.35;8.45;;;;;;;-1.75;100.00;95270.28;5054023;28;20056;-72
2021/12/19 07:57:35;;;;;;;20.02;9.65;;;;;;;-1.86;100.00;95237.25;5062948;28;20041;-73
2021/12/19 08:00:04;;;;;;;15.55;7.60;;;;;;;-1.64;100.00;95259.03;5035853;28;20042;-72
2021/12/19 08:02:38;;;;;;;12.45;7.60;;;;;;;-1.64;100.00;95236.06;5044848;28;20117;-73
2021/12/19 08:05:05;;;;;;;8.00;5.78;;;;;;;-1.50;100.00;95234.72;5036183;28;20125;-72
2021/12/19 08:07:32;;;;;;;13.93;8.20;;;;;;;-1.36;100.00;95234.22;5041009;28;20035;-72
2021/12/19 08:12:27;;;;;;;21.20;9.93;;;;;;;-1.28;100.00;95223.25;5039811;28;20045;-72
2021/12/19 08:14:55;;;;;;;19.23;8.15;;;;;;;-1.12;100.00;95220.00;5113782;27;20043;-73
2021/12/19 08:17:21;;;;;;;14.80;7.35;;;;;;;-1.09;100.00;95204.38;5036551;28;20476;-73
2021/12/19 08:19:49;;;;;;;19.05;8.73;;;;;;;-0.93;100.00;95208.00;5039107;28;20052;-73
2021/12/19 08:22:16;;;;;;;18.92;8.35;;;;;;;-0.89;100.00;95214.44;5030216;28;20060;-73
2021/12/19 08:24:45;;;;;;;20.27;10.52;;;;;;;-0.73;100.00;95211.97;5047944;28;20052;-73
2021/12/19 08:27:13;;;;;;;45.33;19.95;;;;;;;-0.79;100.00;95194.69;5054234;28;20073;-74
2021/12/19 08:29:40;;;;;;;11.65;7.00;;;;;;;-0.51;100.00;95202.16;5059167;28;20036;-74
2021/12/19 08:32:07;;;;;;;25.65;14.55;;;;;;;-0.44;100.00;95203.16;5066673;28;20534;-73
2021/12/19 08:34:35;;;;;;;23.17;12.32;;;;;;;-0.34;100.00;95198.72;5054252;28;20125;-73
2021/12/19 08:37:03;;;;;;;14.90;8.35;;;;;;;-0.22;100.00;95191.56;5048713;28;20405;-72
2021/12/19 08:39:32;;;;;;;17.92;8.15;;;;;;;-0.18;100.00;95192.88;5041570;28;20382;-72
2021/12/19 08:42:00;;;;;;;15.70;8.63;;;;;;;-0.07;100.00;95184.88;5022040;28;20405;-73
2021/12/19 08:44:27;;;;;;;16.88;8.48;;;;;;;0.12;100.00;95196.59;5045007;28;20036;-72
2021/12/19 08:46:54;;;;;;;19.15;7.95;;;;;;;0.02;100.00;95197.69;5049233;28;20042;-71
2021/12/19 08:49:21;;;;;;;31.40;12.68;;;;;;;0.06;100.00;95187.00;5052418;28;20052;-72
2021/12/19 08:51:47;;;;;;;22.10;10.15;;;;;;;0.07;100.00;95201.38;5035943;28;20057;-72
2021/12/19 08:54:14;;;;;;;23.77;11.30;;;;;;;0.01;100.00;95180.75;5037780;28;20819;-72
2021/12/19 08:56:41;;;;;;;18.50;9.77;;;;;;;0.21;100.00;95196.63;5039522;28;20042;-72
2021/12/19 08:59:09;;;;;;;23.33;11.95;;;;;;;0.17;100.00;95186.69;5028490;28;20511;-72
2021/12/19 09:01:37;;;;;;;25.50;10.52;;;;;;;0.23;100.00;95202.41;5048087;28;20045;-71
2021/12/19 09:04:04;;;;;;;33.38;11.48;;;;;;;0.11;100.00;95171.16;5066646;28;20042;-72
2021/12/19 09:06:32;;;;;;;23.92;10.25;;;;;;;0.26;100.00;95199.53;5049702;28;20042;-72
2021/12/19 09:09:01;;;;;;;31.17;15.32;;;;;;;0.30;100.00;95191.34;5065371;28;20039;-73
2021/12/19 09:11:28;;;;;;;48.05;23.98;;;;;;;0.28;100.00;95182.22;5051703;28;20041;-72
2021/12/19 09:13:55;;;;;;;40.60;17.48;;;;;;;0.14;100.00;95161.38;5031402;28;20042;-73
2021/12/19 09:16:23;;;;;;;27.60;15.85;;;;;;;0.09;100.00;95186.69;5027858;28;20081;-71
2021/12/19 09:19:10;;;;;;;21.52;11.00;;;;;;;0.12;100.00;95177.88;5037606;28;20074;-73
2021/12/19 09:21:37;;;;;;;21.23;11.50;;;;;;;0.18;100.00;95178.06;5039967;28;20046;-71
2021/12/19 09:24:04;;;;;;;37.72;18.10;;;;;;;0.08;100.00;95169.72;5027110;27;20038;-72
2021/12/19 09:26:31;;;;;;;43.85;19.40;;;;;;;0.24;100.00;95181.75;5048675;28;20046;-72
2021/12/19 09:28:58;;;;;;;32.47;15.57;;;;;;;0.13;100.00;95164.91;5060132;28;20037;-73
2021/12/19 09:31:26;;;;;;;29.00;14.52;;;;;;;-0.02;100.00;95148.56;5044173;27;20116;-72
2021/12/19 09:33:53;;;;;;;22.15;12.27;;;;;;;-0.15;100.00;95095.25;5036272;28;20046;-73
2021/12/19 09:36:20;;;;;;;22.95;11.88;;;;;;;0.09;100.00;95132.91;5054586;27;20042;-72
2021/12/19 09:38:48;;;;;;;30.30;12.27;;;;;;;0.17;100.00;95135.47;5044352;28;20510;-72
2021/12/19 09:41:28;;;;;;;24.90;12.98;;;;;;;0.21;100.00;95132.59;5125441;27;20052;-73
2021/12/19 09:44:02;;;;;;;31.67;12.88;;;;;;;0.43;100.00;95124.25;5049223;28;21092;-73
2021/12/19 09:46:35;;;;;;;18.52;11.32;;;;;;;0.57;100.00;95136.41;5048045;27;20093;-74
2021/12/19 09:49:05;;;;;;;28.05;13.57;;;;;;;0.75;100.00;95132.88;5043624;28;20053;-73
2021/12/19 09:51:32;;;;;;;17.10;9.48;;;;;;;0.70;100.00;95109.50;5031936;27;20060;-74
2021/12/19 09:53:59;;;;;;;30.00;14.38;;;;;;;0.97;100.00;95120.34;5035900;28;20042;-74
2021/12/19 09:56:27;;;;;;;23.23;9.77;;;;;;;1.06;100.00;95109.09;5032701;27;20110;-74
2021/12/19 09:58:54;;;;;;;27.70;12.40;;;;;;;1.14;100.00;95101.41;5030982;28;20617;-74
2021/12/19 10:01:21;;;;;;;25.48;11.93;;;;;;;1.17;100.00;95090.81;5031033;28;20514;-74
2021/12/19 10:03:48;;;;;;;27.17;9.60;;;;;;;1.16;100.00;95104.59;5037346;28;20487;-75
2021/12/19 10:06:20;;;;;;;13.05;7.78;;;;;;;1.19;100.00;95096.56;5050306;28;20052;-75
2021/12/19 10:09:08;;;;;;;21.70;9.52;;;;;;;0.95;100.00;95090.56;5030292;28;20048;-74
2021/12/19 10:11:59;;;;;;;18.60;9.73;;;;;;;1.02;100.00;95082.19;5031174;27;20059;-75
2021/12/19 10:14:35;;;;;;;15.13;6.95;;;;;;;0.99;100.00;95072.25;5065128;28;20050;-75
2021/12/19 10:17:14;;;;;;;14.75;7.63;;;;;;;0.79;100.00;95077.75;5041109;28;20422;-76
2021/12/19 10:19:42;;;;;;;16.85;10.13;;;;;;;0.86;100.00;95073.56;5071079;28;20044;-75
2021/12/19 10:22:24;;;;;;;22.88;11.38;;;;;;;0.97;100.00;95069.06;5048636;28;20045;-76
2021/12/19 10:24:52;;;;;;;22.90;10.75;;;;;;;0.71;100.00;95075.22;5053963;28;20494;-74
2021/12/19 10:27:31;;;;;;;26.73;13.10;;;;;;;0.54;100.00;95067.56;5044248;28;20039;-75
2021/12/19 10:29:58;;;;;;;26.67;13.25;;;;;;;0.29;100.00;95041.16;5038661;28;20030;-74
2021/12/19 10:32:27;;;;;;;27.38;11.18;;;;;;;0.40;100.00;95050.28;5037609;28;20037;-76
2021/12/19 10:35:13;;;;;;;34.70;14.90;;;;;;;0.35;100.00;95055.09;5050118;28;20500;-74
2021/12/19 10:37:41;;;;;;;30.65;14.02;;;;;;;0.32;100.00;95045.94;5022316;28;20043;-76
2021/12/19 10:40:08;;;;;;;18.25;10.13;;;;;;;0.36;100.00;95046.41;5026974;28;20048;-74
2021/12/19 10:43:00;;;;;;;21.73;12.18;;;;;;;0.31;100.00;95038.44;5027291;28;20438;-74
2021/12/19 10:45:45;;;;;;;18.08;11.18;;;;;;;0.36;100.00;95036.16;5027552;28;20426;-74
2021/12/19 10:48:31;;;;;;;14.73;7.75;;;;;;;0.41;100.00;95028.81;5026380;28;20047;-75
2021/12/19 10:51:15;;;;;;;16.95;9.23;;;;;;;0.30;100.00;95031.72;5021819;28;20037;-74
2021/12/19 10:53:42;;;;;;;14.23;7.82;;;;;;;0.25;100.00;95031.38;5045214;28;20050;-74
2021/12/19 10:56:13;;;;;;;23.42;10.43;;;;;;;0.31;100.00;95028.19;5042793;28;20042;-72
2021/12/19 10:59:00;;;;;;;15.75;9.45;;;;;;;0.24;100.00;95034.94;5047775;28;20044;-76
2021/12/19 11:01:39;;;;;;;19.70;10.38;;;;;;;0.21;100.00;95012.19;5052739;28;20408;-76
2021/12/19 11:04:13;;;;;;;14.80;7.65;;;;;;;0.18;100.00;95009.00;5050636;28;20038;-75
2021/12/19 11:06:44;;;;;;;19.88;11.55;;;;;;;0.21;100.00;95001.94;5042966;28;20128;-73
2021/12/19 11:09:27;;;;;;;24.17;11.75;;;;;;;0.24;100.00;95001.63;5049779;28;20046;-75
2021/12/19 11:11:56;;;;;;;24.27;11.88;;;;;;;0.21;100.00;95001.94;5048105;28;20037;-74
2021/12/19 11:14:39;;;;;;;25.65;11.07;;;;;;;0.26;100.00;94994.56;5052928;28;20033;-74
2021/12/19 11:17:09;;;;;;;19.25;9.85;;;;;;;0.26;100.00;94992.00;5057060;28;20061;-74
2021/12/19 11:19:38;;;;;;;20.52;11.23;;;;;;;0.32;100.00;94978.53;5048608;28;20053;-74
2021/12/19 11:22:23;;;;;;;18.20;10.73;;;;;;;0.26;100.00;94979.22;5042985;28;20495;-74
2021/12/19 11:24:56;;;;;;;13.35;7.18;;;;;;;0.30;100.00;94986.38;5118562;27;20042;-74
2021/12/19 11:27:24;;;;;;;16.77;8.77;;;;;;;0.23;100.00;94964.16;5033959;28;20037;-74
2021/12/19 11:29:53;;;;;;;23.63;9.07;;;;;;;0.34;100.00;94966.34;5029296;28;20057;-74
2021/12/19 11:32:53;;;;;;;19.58;9.77;;;;;;;0.40;100.00;94965.72;5043235;28;20035;-75
2021/12/19 11:35:26;;;;;;;23.60;11.07;;;;;;;0.44;100.00;94969.53;5029859;28;20053;-74
2021/12/19 11:37:57;;;;;;;23.95;11.30;;;;;;;0.34;100.00;94945.88;5040598;28;20045;-74
2021/12/19 11:40:30;;;;;;;19.25;9.70;;;;;;;0.35;100.00;94950.03;5046305;28;20052;-74
2021/12/19 11:43:06;;;;;;;23.05;7.28;;;;;;;0.31;100.00;94956.47;5040988;28;21780;-74
2021/12/19 11:45:38;;;;;;;21.52;10.77;;;;;;;0.28;100.00;94951.66;5027466;28;20033;-73
2021/12/19 11:48:16;;;;;;;17.83;8.65;;;;;;;0.30;100.00;94950.50;5062837;28;20445;-74
2021/12/19 11:50:53;;;;;;;11.43;6.60;;;;;;;0.24;100.00;94955.53;5028444;28;20045;-74
2021/12/19 11:53:33;;;;;;;14.10;7.97;;;;;;;0.23;100.00;94948.78;5042190;28;20061;-74
2021/12/19 11:56:06;;;;;;;18.25;9.45;;;;;;;0.17;100.00;94925.41;5047135;28;20511;-74
2021/12/19 11:58:49;;;;;;;20.73;9.60;;;;;;;0.23;100.00;94935.97;5053026;28;20418;-74
2021/12/19 12:01:19;;;;;;;22.80;9.68;;;;;;;0.23;100.00;94933.41;5033887;28;20130;-75
2021/12/19 12:04:01;;;;;;;24.92;13.52;;;;;;;0.21;100.00;94941.25;5036635;28;20049;-75
2021/12/19 12:06:36;;;;;;;22.63;9.90;;;;;;;0.16;100.00;94921.28;5056119;28;20117;-74
2021/12/19 12:09:04;;;;;;;15.57;8.05;;;;;;;0.15;100.00;94931.69;5068935;28;20044;-74
2021/12/19 12:11:32;;;;;;;18.73;9.35;;;;;;;0.13;100.00;94913.91;5061279;28;20495;-75
2021/12/19 12:14:31;;;;;;;28.58;10.68;;;;;;;0.29;100.00;94917.38;5030543;28;20042;-75
2021/12/19 12:17:07;;;;;;;28.48;10.32;;;;;;;0.27;100.00;94909.06;5033190;28;20459;-74
2021/12/19 12:19:51;;;;;;;29.33;13.10;;;;;;;0.15;100.00;94909.41;5047336;28;20082;-74
2021/12/19 12:22:37;;;;;;;24.08;11.05;;;;;;;0.23;100.00;94910.34;5097777;28;20045;-73
2021/12/19 12:25:15;;;;;;;19.73;10.50;;;;;;;0.14;100.00;94883.97;5072051;28;20034;-74
2021/12/19 12:27:41;;;;;;;25.73;11.00;;;;;;;0.17;100.00;94892.13;5055384;28;20897;-73
2021/12/19 12:30:13;;;;;;;23.85;11.30;;;;;;;0.17;100.00;94873.41;5048982;27;20048;-73
2021/12/19 12:32:40;;;;;;;15.25;8.82;;;;;;;0.10;100.00;94873.25;5052031;28;20062;-73
2021/12/19 12:35:11;;;;;;;18.27;8.13;;;;;;;0.14;100.00;94869.38;5049022;28;20041;-73
2021/12/19 12:37:40;;;;;;;32.40;12.93;;;;;;;0.17;100.00;94863.94;5072862;28;20036;-73
2021/12/19 12:40:42;;;;;;;28.13;12.52;;;;;;;0.22;100.00;94855.78;5075659;28;20057;-74
2021/12/19 12:43:14;;;;;;;24.00;11.05;;;;;;;0.11;100.00;94839.00;5077744;28;20529;-73
2021/12/19 12:45:47;;;;;;;36.60;12.98;;;;;;;0.25;100.00;94847.72;5043933;28;20033;-73